sensor_id;sensor_type;location;lat;lon;timestamp;P1;durP1;ratioP1;P2;durP2;ratioP2
37971;SDS011;23794;48.234;8.344;2023-05-09T00:00:44;12.23;;;7.75;;
37971;SDS011;23794;48.234;8.344;2023-05-09T00:03:11;8.73;;;6.60;;
37971;SDS011;23794;48.234;8.344;2023-05-09T00:05:38;8.95;;;7.18;;
37971;SDS011;23794;48.234;8.344;2023-05-09T00:08:04;6.88;;;5.65;;
37971;SDS011;23794;48.234;8.344;2023-05-09T00:10:31;7.38;;;5.47;;
37971;SDS011;23794;48.234;8.344;2023-05-09T00:12:57;11.57;;;4.88;;
37971;SDS011;23794;48.234;8.344;2023-05-09T00:15:25;8.77;;;5.82;;
37971;SDS011;23794;48.234;8.344;2023-05-09T00:17:51;15.50;;;6.90;;
37971;SDS011;23794;48.234;8.344;2023-05-09T00:20:19;7.05;;;5.88;;
37971;SDS011;23794;48.234;8.344;2023-05-09T00:22:46;7.43;;;5.47;;
37971;SDS011;23794;48.234;8.344;2023-05-09T00:25:13;9.85;;;7.25;;
37971;SDS011;23794;48.234;8.344;2023-05-09T00:27:40;7.65;;;6.20;;
37971;SDS011;23794;48.234;8.344;2023-05-09T00:30:07;9.38;;;6.07;;
37971;SDS011;23794;48.234;8.344;2023-05-09T00:32:34;6.50;;;5.63;;
37971;SDS011;23794;48.234;8.344;2023-05-09T00:35:00;9.95;;;6.47;;
37971;SDS011;23794;48.234;8.344;2023-05-09T00:37:27;7.45;;;6.20;;
37971;SDS011;23794;48.234;8.344;2023-05-09T00:39:55;7.25;;;3.97;;
37971;SDS011;23794;48.234;8.344;2023-05-09T00:42:22;4.70;;;4.20;;
37971;SDS011;23794;48.234;8.344;2023-05-09T00:44:49;8.02;;;5.60;;
37971;SDS011;23794;48.234;8.344;2023-05-09T00:47:15;8.27;;;6.50;;
37971;SDS011;23794;48.234;8.344;2023-05-09T00:49:42;7.57;;;6.43;;
37971;SDS011;23794;48.234;8.344;2023-05-09T00:52:08;10.88;;;7.07;;
37971;SDS011;23794;48.234;8.344;2023-05-09T00:54:35;7.65;;;5.55;;
37971;SDS011;23794;48.234;8.344;2023-05-09T00:57:03;7.95;;;5.20;;
37971;SDS011;23794;48.234;8.344;2023-05-09T00:59:29;9.50;;;6.38;;
37971;SDS011;23794;48.234;8.344;2023-05-09T01:01:56;5.95;;;4.78;;
37971;SDS011;23794;48.234;8.344;2023-05-09T01:04:23;5.75;;;5.15;;
37971;SDS011;23794;48.234;8.344;2023-05-09T01:07:12;8.77;;;5.75;;
37971;SDS011;23794;48.234;8.344;2023-05-09T01:09:44;7.25;;;5.72;;
37971;SDS011;23794;48.234;8.344;2023-05-09T01:17:52;10.63;;;6.68;;
37971;SDS011;23794;48.234;8.344;2023-05-09T01:20:34;12.82;;;7.93;;
37971;SDS011;23794;48.234;8.344;2023-05-09T01:28:33;10.35;;;7.28;;
37971;SDS011;23794;48.234;8.344;2023-05-09T01:31:19;13.68;;;7.10;;
37971;SDS011;23794;48.234;8.344;2023-05-09T01:33:48;11.50;;;7.95;;
37971;SDS011;23794;48.234;8.344;2023-05-09T01:36:19;7.22;;;5.53;;
37971;SDS011;23794;48.234;8.344;2023-05-09T01:38:47;8.93;;;6.85;;
37971;SDS011;23794;48.234;8.344;2023-05-09T01:41:17;9.52;;;7.03;;
37971;SDS011;23794;48.234;8.344;2023-05-09T01:43:46;19.77;;;9.55;;
37971;SDS011;23794;48.234;8.344;2023-05-09T01:46:16;9.43;;;7.22;;
37971;SDS011;23794;48.234;8.344;2023-05-09T01:48:45;8.98;;;6.60;;
37971;SDS011;23794;48.234;8.344;2023-05-09T01:51:12;10.93;;;6.35;;
37971;SDS011;23794;48.234;8.344;2023-05-09T01:53:39;5.78;;;4.85;;
37971;SDS011;23794;48.234;8.344;2023-05-09T01:56:07;8.00;;;6.43;;
37971;SDS011;23794;48.234;8.344;2023-05-09T01:58:37;13.75;;;8.35;;
37971;SDS011;23794;48.234;8.344;2023-05-09T02:01:05;10.80;;;7.15;;
37971;SDS011;23794;48.234;8.344;2023-05-09T02:03:32;7.50;;;6.35;;
37971;SDS011;23794;48.234;8.344;2023-05-09T02:06:00;14.68;;;8.80;;
37971;SDS011;23794;48.234;8.344;2023-05-09T02:08:30;9.20;;;5.85;;
37971;SDS011;23794;48.234;8.344;2023-05-09T02:10:58;12.40;;;8.02;;
37971;SDS011;23794;48.234;8.344;2023-05-09T02:13:25;13.30;;;8.60;;
37971;SDS011;23794;48.234;8.344;2023-05-09T02:15:52;7.82;;;6.47;;
37971;SDS011;23794;48.234;8.344;2023-05-09T02:18:20;9.13;;;6.53;;
37971;SDS011;23794;48.234;8.344;2023-05-09T02:20:47;9.18;;;6.75;;
37971;SDS011;23794;48.234;8.344;2023-05-09T02:23:14;8.45;;;6.55;;
37971;SDS011;23794;48.234;8.344;2023-05-09T02:25:40;7.13;;;5.20;;
37971;SDS011;23794;48.234;8.344;2023-05-09T02:28:07;8.38;;;5.80;;
37971;SDS011;23794;48.234;8.344;2023-05-09T02:30:38;9.27;;;6.70;;
37971;SDS011;23794;48.234;8.344;2023-05-09T02:33:07;6.38;;;5.07;;
37971;SDS011;23794;48.234;8.344;2023-05-09T02:35:37;4.93;;;4.43;;
37971;SDS011;23794;48.234;8.344;2023-05-09T02:38:07;6.80;;;4.78;;
37971;SDS011;23794;48.234;8.344;2023-05-09T02:40:33;6.00;;;5.10;;
37971;SDS011;23794;48.234;8.344;2023-05-09T02:43:00;7.53;;;5.43;;
37971;SDS011;23794;48.234;8.344;2023-05-09T02:45:27;5.63;;;3.38;;
37971;SDS011;23794;48.234;8.344;2023-05-09T02:47:54;4.78;;;4.28;;
37971;SDS011;23794;48.234;8.344;2023-05-09T02:50:21;7.60;;;5.82;;
37971;SDS011;23794;48.234;8.344;2023-05-09T02:52:48;6.45;;;4.65;;
37971;SDS011;23794;48.234;8.344;2023-05-09T02:55:14;11.35;;;7.72;;
37971;SDS011;23794;48.234;8.344;2023-05-09T02:57:41;8.40;;;5.97;;
37971;SDS011;23794;48.234;8.344;2023-05-09T03:00:09;9.25;;;6.28;;
37971;SDS011;23794;48.234;8.344;2023-05-09T03:02:37;5.65;;;4.85;;
37971;SDS011;23794;48.234;8.344;2023-05-09T03:05:09;7.70;;;5.68;;
37971;SDS011;23794;48.234;8.344;2023-05-09T03:07:35;7.07;;;6.13;;
37971;SDS011;23794;48.234;8.344;2023-05-09T03:10:02;7.22;;;5.72;;
37971;SDS011;23794;48.234;8.344;2023-05-09T03:12:30;10.45;;;7.35;;
37971;SDS011;23794;48.234;8.344;2023-05-09T03:14:56;5.35;;;3.55;;
37971;SDS011;23794;48.234;8.344;2023-05-09T03:17:23;19.27;;;5.22;;
37971;SDS011;23794;48.234;8.344;2023-05-09T03:19:50;26.38;;;5.93;;
37971;SDS011;23794;48.234;8.344;2023-05-09T03:22:16;6.82;;;3.95;;
37971;SDS011;23794;48.234;8.344;2023-05-09T03:24:51;8.25;;;6.60;;
37971;SDS011;23794;48.234;8.344;2023-05-09T03:27:18;6.50;;;5.07;;
37971;SDS011;23794;48.234;8.344;2023-05-09T03:29:46;5.22;;;4.38;;
37971;SDS011;23794;48.234;8.344;2023-05-09T03:32:13;3.25;;;2.95;;
37971;SDS011;23794;48.234;8.344;2023-05-09T03:34:40;3.50;;;3.00;;
37971;SDS011;23794;48.234;8.344;2023-05-09T03:37:07;7.43;;;4.70;;
37971;SDS011;23794;48.234;8.344;2023-05-09T03:39:37;4.43;;;3.05;;
37971;SDS011;23794;48.234;8.344;2023-05-09T03:42:04;5.78;;;3.95;;
37971;SDS011;23794;48.234;8.344;2023-05-09T03:44:30;8.40;;;5.93;;
37971;SDS011;23794;48.234;8.344;2023-05-09T03:46:58;6.90;;;6.07;;
37971;SDS011;23794;48.234;8.344;2023-05-09T03:49:29;6.95;;;5.25;;
37971;SDS011;23794;48.234;8.344;2023-05-09T03:51:56;6.05;;;5.22;;
37971;SDS011;23794;48.234;8.344;2023-05-09T03:54:24;6.43;;;4.13;;
37971;SDS011;23794;48.234;8.344;2023-05-09T03:56:51;4.80;;;4.30;;
37971;SDS011;23794;48.234;8.344;2023-05-09T03:59:18;7.68;;;5.47;;
37971;SDS011;23794;48.234;8.344;2023-05-09T04:01:44;8.15;;;4.95;;
37971;SDS011;23794;48.234;8.344;2023-05-09T04:04:11;6.43;;;5.22;;
37971;SDS011;23794;48.234;8.344;2023-05-09T04:06:38;9.45;;;5.93;;
37971;SDS011;23794;48.234;8.344;2023-05-09T04:09:07;4.50;;;4.03;;
37971;SDS011;23794;48.234;8.344;2023-05-09T04:11:35;6.38;;;5.63;;
37971;SDS011;23794;48.234;8.344;2023-05-09T04:14:05;7.00;;;5.77;;
37971;SDS011;23794;48.234;8.344;2023-05-09T04:16:34;6.40;;;4.78;;
37971;SDS011;23794;48.234;8.344;2023-05-09T04:19:01;4.78;;;4.35;;
37971;SDS011;23794;48.234;8.344;2023-05-09T04:21:28;7.43;;;5.43;;
37971;SDS011;23794;48.234;8.344;2023-05-09T04:23:57;4.75;;;3.70;;
37971;SDS011;23794;48.234;8.344;2023-05-09T04:26:31;4.88;;;4.38;;
37971;SDS011;23794;48.234;8.344;2023-05-09T04:29:00;7.10;;;4.90;;
37971;SDS011;23794;48.234;8.344;2023-05-09T04:31:27;7.07;;;3.72;;
37971;SDS011;23794;48.234;8.344;2023-05-09T04:33:54;3.75;;;3.40;;
37971;SDS011;23794;48.234;8.344;2023-05-09T04:36:21;4.32;;;3.92;;
37971;SDS011;23794;48.234;8.344;2023-05-09T04:38:48;4.47;;;3.85;;
37971;SDS011;23794;48.234;8.344;2023-05-09T04:41:19;4.47;;;4.07;;
37971;SDS011;23794;48.234;8.344;2023-05-09T04:43:46;3.55;;;3.22;;
37971;SDS011;23794;48.234;8.344;2023-05-09T04:46:13;5.75;;;4.80;;
37971;SDS011;23794;48.234;8.344;2023-05-09T04:48:40;4.70;;;3.53;;
37971;SDS011;23794;48.234;8.344;2023-05-09T04:51:07;7.80;;;4.40;;
37971;SDS011;23794;48.234;8.344;2023-05-09T04:53:33;4.47;;;2.80;;
37971;SDS011;23794;48.234;8.344;2023-05-09T04:56:00;4.95;;;4.00;;
37971;SDS011;23794;48.234;8.344;2023-05-09T04:58:28;6.47;;;5.22;;
37971;SDS011;23794;48.234;8.344;2023-05-09T05:00:57;4.65;;;4.18;;
37971;SDS011;23794;48.234;8.344;2023-05-09T05:03:23;7.18;;;4.95;;
37971;SDS011;23794;48.234;8.344;2023-05-09T05:05:50;6.88;;;4.78;;
37971;SDS011;23794;48.234;8.344;2023-05-09T05:08:17;4.75;;;4.25;;
37971;SDS011;23794;48.234;8.344;2023-05-09T05:10:44;4.43;;;4.03;;
37971;SDS011;23794;48.234;8.344;2023-05-09T05:13:13;4.55;;;3.28;;
37971;SDS011;23794;48.234;8.344;2023-05-09T05:15:43;5.60;;;3.35;;
37971;SDS011;23794;48.234;8.344;2023-05-09T05:18:11;6.93;;;4.05;;
37971;SDS011;23794;48.234;8.344;2023-05-09T05:20:41;5.03;;;4.45;;
37971;SDS011;23794;48.234;8.344;2023-05-09T05:23:08;5.35;;;3.55;;
37971;SDS011;23794;48.234;8.344;2023-05-09T05:25:36;6.65;;;4.25;;
37971;SDS011;23794;48.234;8.344;2023-05-09T05:28:03;2.55;;;2.35;;
37971;SDS011;23794;48.234;8.344;2023-05-09T05:30:30;4.32;;;2.67;;
37971;SDS011;23794;48.234;8.344;2023-05-09T05:33:00;5.20;;;2.50;;
37971;SDS011;23794;48.234;8.344;2023-05-09T05:35:27;3.17;;;2.10;;
37971;SDS011;23794;48.234;8.344;2023-05-09T05:37:55;3.42;;;2.80;;
37971;SDS011;23794;48.234;8.344;2023-05-09T05:40:21;3.90;;;3.08;;
37971;SDS011;23794;48.234;8.344;2023-05-09T05:42:50;8.15;;;4.57;;
37971;SDS011;23794;48.234;8.344;2023-05-09T05:45:17;3.75;;;3.35;;
37971;SDS011;23794;48.234;8.344;2023-05-09T05:47:48;5.28;;;3.40;;
37971;SDS011;23794;48.234;8.344;2023-05-09T05:50:15;3.97;;;3.08;;
37971;SDS011;23794;48.234;8.344;2023-05-09T05:52:42;5.10;;;3.70;;
37971;SDS011;23794;48.234;8.344;2023-05-09T05:55:12;10.40;;;5.03;;
37971;SDS011;23794;48.234;8.344;2023-05-09T05:57:39;8.20;;;4.30;;
37971;SDS011;23794;48.234;8.344;2023-05-09T06:00:07;6.18;;;4.43;;
37971;SDS011;23794;48.234;8.344;2023-05-09T06:05:20;6.72;;;3.33;;
37971;SDS011;23794;48.234;8.344;2023-05-09T06:07:48;3.88;;;2.60;;
37971;SDS011;23794;48.234;8.344;2023-05-09T06:10:15;4.25;;;2.90;;
37971;SDS011;23794;48.234;8.344;2023-05-09T06:12:43;4.18;;;3.05;;
37971;SDS011;23794;48.234;8.344;2023-05-09T06:15:10;4.93;;;3.17;;
37971;SDS011;23794;48.234;8.344;2023-05-09T06:17:41;3.75;;;2.80;;
37971;SDS011;23794;48.234;8.344;2023-05-09T06:20:08;3.92;;;2.42;;
37971;SDS011;23794;48.234;8.344;2023-05-09T06:22:34;2.38;;;2.17;;
37971;SDS011;23794;48.234;8.344;2023-05-09T06:25:01;3.92;;;2.17;;
37971;SDS011;23794;48.234;8.344;2023-05-09T06:27:28;1.92;;;1.63;;
37971;SDS011;23794;48.234;8.344;2023-05-09T06:29:54;2.38;;;1.90;;
37971;SDS011;23794;48.234;8.344;2023-05-09T06:32:21;2.38;;;2.17;;
37971;SDS011;23794;48.234;8.344;2023-05-09T06:34:48;4.05;;;2.45;;
37971;SDS011;23794;48.234;8.344;2023-05-09T06:37:15;2.65;;;2.35;;
37971;SDS011;23794;48.234;8.344;2023-05-09T06:39:41;2.45;;;2.25;;
37971;SDS011;23794;48.234;8.344;2023-05-09T06:42:08;4.38;;;3.03;;
37971;SDS011;23794;48.234;8.344;2023-05-09T06:44:37;3.22;;;2.90;;
37971;SDS011;23794;48.234;8.344;2023-05-09T06:47:04;3.90;;;2.97;;
37971;SDS011;23794;48.234;8.344;2023-05-09T06:49:30;4.75;;;3.10;;
37971;SDS011;23794;48.234;8.344;2023-05-09T06:51:57;3.08;;;2.47;;
37971;SDS011;23794;48.234;8.344;2023-05-09T06:54:24;2.58;;;2.13;;
37971;SDS011;23794;48.234;8.344;2023-05-09T06:56:50;2.60;;;2.40;;
37971;SDS011;23794;48.234;8.344;2023-05-09T06:59:17;7.95;;;2.67;;
37971;SDS011;23794;48.234;8.344;2023-05-09T07:01:43;2.60;;;2.22;;
37971;SDS011;23794;48.234;8.344;2023-05-09T07:04:10;5.70;;;3.20;;
37971;SDS011;23794;48.234;8.344;2023-05-09T07:06:36;5.07;;;2.70;;
37971;SDS011;23794;48.234;8.344;2023-05-09T07:09:03;4.30;;;3.33;;
37971;SDS011;23794;48.234;8.344;2023-05-09T07:11:33;4.13;;;2.90;;
37971;SDS011;23794;48.234;8.344;2023-05-09T07:14:02;4.72;;;2.72;;
37971;SDS011;23794;48.234;8.344;2023-05-09T07:16:29;4.35;;;2.88;;
37971;SDS011;23794;48.234;8.344;2023-05-09T07:18:56;7.25;;;2.88;;
37971;SDS011;23794;48.234;8.344;2023-05-09T07:21:22;3.33;;;2.83;;
37971;SDS011;23794;48.234;8.344;2023-05-09T07:23:49;11.20;;;3.53;;
37971;SDS011;23794;48.234;8.344;2023-05-09T07:26:15;4.63;;;3.45;;
37971;SDS011;23794;48.234;8.344;2023-05-09T07:28:42;5.70;;;3.42;;
37971;SDS011;23794;48.234;8.344;2023-05-09T07:31:08;4.50;;;3.42;;
37971;SDS011;23794;48.234;8.344;2023-05-09T07:33:35;4.25;;;3.15;;
37971;SDS011;23794;48.234;8.344;2023-05-09T07:36:02;4.97;;;3.20;;
37971;SDS011;23794;48.234;8.344;2023-05-09T07:38:28;3.33;;;2.70;;
37971;SDS011;23794;48.234;8.344;2023-05-09T07:40:55;6.38;;;2.63;;
37971;SDS011;23794;48.234;8.344;2023-05-09T07:43:21;4.55;;;2.47;;
37971;SDS011;23794;48.234;8.344;2023-05-09T07:45:48;4.63;;;2.67;;
37971;SDS011;23794;48.234;8.344;2023-05-09T07:48:15;4.30;;;2.15;;
37971;SDS011;23794;48.234;8.344;2023-05-09T07:50:41;5.10;;;2.63;;
37971;SDS011;23794;48.234;8.344;2023-05-09T07:53:08;4.40;;;2.80;;
37971;SDS011;23794;48.234;8.344;2023-05-09T07:55:34;5.75;;;2.50;;
37971;SDS011;23794;48.234;8.344;2023-05-09T07:58:01;2.60;;;2.40;;
37971;SDS011;23794;48.234;8.344;2023-05-09T08:00:28;3.88;;;2.45;;
37971;SDS011;23794;48.234;8.344;2023-05-09T08:02:54;3.78;;;2.30;;
37971;SDS011;23794;48.234;8.344;2023-05-09T08:05:21;10.70;;;2.97;;
37971;SDS011;23794;48.234;8.344;2023-05-09T08:07:48;4.68;;;2.13;;
37971;SDS011;23794;48.234;8.344;2023-05-09T08:10:14;2.50;;;2.10;;
37971;SDS011;23794;48.234;8.344;2023-05-09T08:12:41;5.28;;;2.47;;
37971;SDS011;23794;48.234;8.344;2023-05-09T08:15:08;2.58;;;1.65;;
37971;SDS011;23794;48.234;8.344;2023-05-09T08:17:35;2.10;;;1.90;;
37971;SDS011;23794;48.234;8.344;2023-05-09T08:20:01;2.40;;;2.13;;
37971;SDS011;23794;48.234;8.344;2023-05-09T08:22:30;3.90;;;2.00;;
37971;SDS011;23794;48.234;8.344;2023-05-09T08:24:57;2.63;;;1.83;;
37971;SDS011;23794;48.234;8.344;2023-05-09T08:27:23;1.77;;;1.50;;
37971;SDS011;23794;48.234;8.344;2023-05-09T08:29:52;2.45;;;1.80;;
37971;SDS011;23794;48.234;8.344;2023-05-09T08:32:19;7.30;;;1.70;;
37971;SDS011;23794;48.234;8.344;2023-05-09T08:34:46;2.75;;;1.80;;
37971;SDS011;23794;48.234;8.344;2023-05-09T08:37:12;2.17;;;1.40;;
37971;SDS011;23794;48.234;8.344;2023-05-09T08:39:40;1.50;;;1.13;;
37971;SDS011;23794;48.234;8.344;2023-05-09T08:42:08;3.80;;;1.20;;
37971;SDS011;23794;48.234;8.344;2023-05-09T08:44:35;2.63;;;1.20;;
37971;SDS011;23794;48.234;8.344;2023-05-09T08:47:02;4.22;;;1.30;;
37971;SDS011;23794;48.234;8.344;2023-05-09T08:49:30;1.85;;;1.00;;
37971;SDS011;23794;48.234;8.344;2023-05-09T08:51:56;2.60;;;1.10;;
37971;SDS011;23794;48.234;8.344;2023-05-09T08:54:24;4.57;;;0.93;;
37971;SDS011;23794;48.234;8.344;2023-05-09T08:56:50;3.15;;;1.20;;
37971;SDS011;23794;48.234;8.344;2023-05-09T08:59:17;2.88;;;1.00;;
37971;SDS011;23794;48.234;8.344;2023-05-09T09:01:44;2.97;;;1.10;;
37971;SDS011;23794;48.234;8.344;2023-05-09T09:04:11;1.85;;;1.30;;
37971;SDS011;23794;48.234;8.344;2023-05-09T09:06:38;1.08;;;0.90;;
37971;SDS011;23794;48.234;8.344;2023-05-09T09:09:06;2.15;;;1.15;;
37971;SDS011;23794;48.234;8.344;2023-05-09T09:11:36;1.77;;;0.90;;
37971;SDS011;23794;48.234;8.344;2023-05-09T09:14:11;1.48;;;0.90;;
37971;SDS011;23794;48.234;8.344;2023-05-09T09:16:42;3.30;;;1.00;;
37971;SDS011;23794;48.234;8.344;2023-05-09T09:19:11;2.47;;;0.88;;
37971;SDS011;23794;48.234;8.344;2023-05-09T09:21:41;1.63;;;0.93;;
37971;SDS011;23794;48.234;8.344;2023-05-09T09:24:13;1.70;;;0.70;;
37971;SDS011;23794;48.234;8.344;2023-05-09T09:26:47;5.43;;;1.10;;
37971;SDS011;23794;48.234;8.344;2023-05-09T09:29:15;2.50;;;1.00;;
37971;SDS011;23794;48.234;8.344;2023-05-09T09:31:44;1.15;;;1.05;;
37971;SDS011;23794;48.234;8.344;2023-05-09T09:34:12;0.93;;;0.75;;
37971;SDS011;23794;48.234;8.344;2023-05-09T09:36:44;2.67;;;1.10;;
37971;SDS011;23794;48.234;8.344;2023-05-09T09:39:12;1.77;;;1.13;;
37971;SDS011;23794;48.234;8.344;2023-05-09T09:41:39;2.60;;;0.70;;
37971;SDS011;23794;48.234;8.344;2023-05-09T09:49:14;1.35;;;0.70;;
37971;SDS011;23794;48.234;8.344;2023-05-09T09:51:42;2.15;;;0.90;;
37971;SDS011;23794;48.234;8.344;2023-05-09T09:54:10;1.02;;;0.90;;
37971;SDS011;23794;48.234;8.344;2023-05-09T10:04:22;2.47;;;1.30;;
37971;SDS011;23794;48.234;8.344;2023-05-09T10:06:53;2.88;;;1.55;;
37971;SDS011;23794;48.234;8.344;2023-05-09T10:11:52;2.65;;;1.60;;
37971;SDS011;23794;48.234;8.344;2023-05-09T10:14:20;4.05;;;1.63;;
37971;SDS011;23794;48.234;8.344;2023-05-09T10:16:49;3.30;;;1.83;;
37971;SDS011;23794;48.234;8.344;2023-05-09T10:19:18;2.45;;;1.38;;
37971;SDS011;23794;48.234;8.344;2023-05-09T10:21:55;3.40;;;1.55;;
37971;SDS011;23794;48.234;8.344;2023-05-09T10:27:05;4.47;;;1.30;;
37971;SDS011;23794;48.234;8.344;2023-05-09T10:29:35;1.80;;;1.23;;
37971;SDS011;23794;48.234;8.344;2023-05-09T10:35:04;1.50;;;1.25;;
37971;SDS011;23794;48.234;8.344;2023-05-09T10:37:32;3.70;;;1.30;;
37971;SDS011;23794;48.234;8.344;2023-05-09T10:40:00;1.83;;;1.15;;
37971;SDS011;23794;48.234;8.344;2023-05-09T10:42:29;1.88;;;1.45;;
37971;SDS011;23794;48.234;8.344;2023-05-09T10:44:56;2.42;;;1.10;;
37971;SDS011;23794;48.234;8.344;2023-05-09T10:47:26;2.25;;;0.95;;
37971;SDS011;23794;48.234;8.344;2023-05-09T10:52:21;1.90;;;1.40;;
37971;SDS011;23794;48.234;8.344;2023-05-09T10:54:58;2.58;;;1.38;;
37971;SDS011;23794;48.234;8.344;2023-05-09T10:57:29;3.10;;;1.30;;
37971;SDS011;23794;48.234;8.344;2023-05-09T10:59:57;1.40;;;1.20;;
37971;SDS011;23794;48.234;8.344;2023-05-09T11:02:24;1.75;;;1.30;;
37971;SDS011;23794;48.234;8.344;2023-05-09T11:05:11;1.40;;;1.20;;
37971;SDS011;23794;48.234;8.344;2023-05-09T11:07:39;3.17;;;1.15;;
37971;SDS011;23794;48.234;8.344;2023-05-09T11:10:07;1.20;;;1.08;;
37971;SDS011;23794;48.234;8.344;2023-05-09T11:12:51;2.40;;;1.30;;
37971;SDS011;23794;48.234;8.344;2023-05-09T11:15:23;2.40;;;1.13;;
37971;SDS011;23794;48.234;8.344;2023-05-09T11:18:10;1.55;;;1.20;;
37971;SDS011;23794;48.234;8.344;2023-05-09T11:20:41;2.22;;;1.15;;
37971;SDS011;23794;48.234;8.344;2023-05-09T11:23:09;3.22;;;1.35;;
37971;SDS011;23794;48.234;8.344;2023-05-09T11:25:44;2.78;;;1.50;;
37971;SDS011;23794;48.234;8.344;2023-05-09T11:28:24;2.35;;;1.48;;
37971;SDS011;23794;48.234;8.344;2023-05-09T11:30:53;2.88;;;1.48;;
37971;SDS011;23794;48.234;8.344;2023-05-09T11:33:35;1.40;;;1.10;;
37971;SDS011;23794;48.234;8.344;2023-05-09T11:36:15;3.00;;;1.25;;
37971;SDS011;23794;48.234;8.344;2023-05-09T11:38:44;2.00;;;1.48;;
37971;SDS011;23794;48.234;8.344;2023-05-09T11:41:12;2.10;;;1.40;;
37971;SDS011;23794;48.234;8.344;2023-05-09T11:43:39;3.17;;;1.50;;
37971;SDS011;23794;48.234;8.344;2023-05-09T11:46:07;2.38;;;1.30;;
37971;SDS011;23794;48.234;8.344;2023-05-09T11:48:37;2.45;;;1.60;;
37971;SDS011;23794;48.234;8.344;2023-05-09T11:51:05;2.20;;;1.30;;
37971;SDS011;23794;48.234;8.344;2023-05-09T11:53:32;5.25;;;1.40;;
37971;SDS011;23794;48.234;8.344;2023-05-09T11:56:03;1.25;;;1.15;;
37971;SDS011;23794;48.234;8.344;2023-05-09T11:58:30;3.22;;;1.50;;
37971;SDS011;23794;48.234;8.344;2023-05-09T12:00:56;4.95;;;1.30;;
37971;SDS011;23794;48.234;8.344;2023-05-09T12:03:23;1.90;;;1.05;;
37971;SDS011;23794;48.234;8.344;2023-05-09T12:05:52;1.27;;;1.17;;
37971;SDS011;23794;48.234;8.344;2023-05-09T12:08:20;2.10;;;1.10;;
37971;SDS011;23794;48.234;8.344;2023-05-09T12:10:48;1.52;;;1.17;;
37971;SDS011;23794;48.234;8.344;2023-05-09T12:13:15;1.85;;;1.40;;
37971;SDS011;23794;48.234;8.344;2023-05-09T12:15:46;1.13;;;0.90;;
37971;SDS011;23794;48.234;8.344;2023-05-09T12:18:13;2.97;;;1.10;;
37971;SDS011;23794;48.234;8.344;2023-05-09T12:20:43;1.30;;;1.15;;
37971;SDS011;23794;48.234;8.344;2023-05-09T12:23:11;1.20;;;1.10;;
37971;SDS011;23794;48.234;8.344;2023-05-09T12:25:52;1.70;;;1.17;;
37971;SDS011;23794;48.234;8.344;2023-05-09T12:28:21;2.65;;;1.08;;
37971;SDS011;23794;48.234;8.344;2023-05-09T12:30:49;2.42;;;1.40;;
37971;SDS011;23794;48.234;8.344;2023-05-09T12:33:17;1.70;;;1.50;;
37971;SDS011;23794;48.234;8.344;2023-05-09T12:35:45;1.50;;;1.33;;
37971;SDS011;23794;48.234;8.344;2023-05-09T12:38:22;1.98;;;1.30;;
37971;SDS011;23794;48.234;8.344;2023-05-09T12:40:49;1.55;;;1.23;;
37971;SDS011;23794;48.234;8.344;2023-05-09T12:43:35;3.83;;;1.95;;
37971;SDS011;23794;48.234;8.344;2023-05-09T12:46:04;1.85;;;1.20;;
37971;SDS011;23794;48.234;8.344;2023-05-09T12:48:35;1.30;;;1.20;;
37971;SDS011;23794;48.234;8.344;2023-05-09T12:51:04;1.42;;;1.02;;
37971;SDS011;23794;48.234;8.344;2023-05-09T12:53:35;3.25;;;1.25;;
37971;SDS011;23794;48.234;8.344;2023-05-09T12:56:04;3.63;;;1.48;;
37971;SDS011;23794;48.234;8.344;2023-05-09T12:58:47;2.60;;;1.27;;
37971;SDS011;23794;48.234;8.344;2023-05-09T13:01:18;2.22;;;1.40;;
37971;SDS011;23794;48.234;8.344;2023-05-09T13:03:52;2.83;;;1.50;;
37971;SDS011;23794;48.234;8.344;2023-05-09T13:06:26;1.95;;;1.40;;
37971;SDS011;23794;48.234;8.344;2023-05-09T13:08:56;4.53;;;1.60;;
37971;SDS011;23794;48.234;8.344;2023-05-09T13:11:27;3.10;;;1.42;;
37971;SDS011;23794;48.234;8.344;2023-05-09T13:13:54;1.70;;;1.30;;
37971;SDS011;23794;48.234;8.344;2023-05-09T13:16:23;5.40;;;1.45;;
37971;SDS011;23794;48.234;8.344;2023-05-09T13:18:50;1.80;;;1.27;;
37971;SDS011;23794;48.234;8.344;2023-05-09T13:21:16;4.25;;;1.52;;
37971;SDS011;23794;48.234;8.344;2023-05-09T13:23:43;1.98;;;1.40;;
37971;SDS011;23794;48.234;8.344;2023-05-09T13:26:10;3.97;;;1.35;;
37971;SDS011;23794;48.234;8.344;2023-05-09T13:28:37;2.80;;;1.55;;
37971;SDS011;23794;48.234;8.344;2023-05-09T13:31:03;3.15;;;1.50;;
37971;SDS011;23794;48.234;8.344;2023-05-09T13:33:30;3.35;;;1.30;;
37971;SDS011;23794;48.234;8.344;2023-05-09T13:35:57;1.88;;;1.40;;
37971;SDS011;23794;48.234;8.344;2023-05-09T13:38:23;1.30;;;1.20;;
37971;SDS011;23794;48.234;8.344;2023-05-09T13:40:50;2.58;;;1.50;;
37971;SDS011;23794;48.234;8.344;2023-05-09T13:43:17;2.10;;;1.33;;
37971;SDS011;23794;48.234;8.344;2023-05-09T13:45:43;1.92;;;1.38;;
37971;SDS011;23794;48.234;8.344;2023-05-09T13:48:10;1.77;;;1.52;;
37971;SDS011;23794;48.234;8.344;2023-05-09T13:50:37;2.35;;;1.77;;
37971;SDS011;23794;48.234;8.344;2023-05-09T13:53:03;2.35;;;1.58;;
37971;SDS011;23794;48.234;8.344;2023-05-09T13:55:30;3.95;;;1.30;;
37971;SDS011;23794;48.234;8.344;2023-05-09T13:57:57;1.73;;;1.20;;
37971;SDS011;23794;48.234;8.344;2023-05-09T14:00:23;2.03;;;1.55;;
37971;SDS011;23794;48.234;8.344;2023-05-09T14:02:51;4.57;;;1.80;;
37971;SDS011;23794;48.234;8.344;2023-05-09T14:05:18;3.55;;;1.55;;
37971;SDS011;23794;48.234;8.344;2023-05-09T14:07:45;2.30;;;1.58;;
37971;SDS011;23794;48.234;8.344;2023-05-09T14:10:11;2.83;;;1.45;;
37971;SDS011;23794;48.234;8.344;2023-05-09T14:12:38;2.83;;;1.45;;
37971;SDS011;23794;48.234;8.344;2023-05-09T14:15:06;2.40;;;1.33;;
37971;SDS011;23794;48.234;8.344;2023-05-09T14:17:33;1.50;;;1.40;;
37971;SDS011;23794;48.234;8.344;2023-05-09T14:20:00;6.30;;;1.67;;
37971;SDS011;23794;48.234;8.344;2023-05-09T14:22:26;5.47;;;2.20;;
37971;SDS011;23794;48.234;8.344;2023-05-09T14:24:53;4.00;;;2.03;;
37971;SDS011;23794;48.234;8.344;2023-05-09T14:27:22;6.63;;;1.85;;
37971;SDS011;23794;48.234;8.344;2023-05-09T14:29:49;4.63;;;1.92;;
37971;SDS011;23794;48.234;8.344;2023-05-09T14:32:15;2.33;;;1.85;;
37971;SDS011;23794;48.234;8.344;2023-05-09T14:34:42;4.18;;;2.30;;
37971;SDS011;23794;48.234;8.344;2023-05-09T14:37:09;6.63;;;2.45;;
37971;SDS011;23794;48.234;8.344;2023-05-09T14:39:39;2.92;;;2.08;;
37971;SDS011;23794;48.234;8.344;2023-05-09T14:42:08;5.35;;;2.92;;
37971;SDS011;23794;48.234;8.344;2023-05-09T14:44:36;4.00;;;2.20;;
37971;SDS011;23794;48.234;8.344;2023-05-09T14:47:04;3.58;;;2.13;;
37971;SDS011;23794;48.234;8.344;2023-05-09T14:49:31;5.05;;;2.50;;
37971;SDS011;23794;48.234;8.344;2023-05-09T14:51:58;3.55;;;2.20;;
37971;SDS011;23794;48.234;8.344;2023-05-09T14:54:24;3.55;;;2.58;;
37971;SDS011;23794;48.234;8.344;2023-05-09T14:56:51;3.75;;;1.83;;
37971;SDS011;23794;48.234;8.344;2023-05-09T14:59:19;3.67;;;2.00;;
37971;SDS011;23794;48.234;8.344;2023-05-09T15:01:46;2.60;;;2.40;;
37971;SDS011;23794;48.234;8.344;2023-05-09T15:04:12;7.25;;;3.13;;
37971;SDS011;23794;48.234;8.344;2023-05-09T15:06:39;4.47;;;2.38;;
37971;SDS011;23794;48.234;8.344;2023-05-09T15:09:06;8.05;;;2.50;;
37971;SDS011;23794;48.234;8.344;2023-05-09T15:11:33;5.47;;;2.20;;
37971;SDS011;23794;48.234;8.344;2023-05-09T15:14:13;4.43;;;2.92;;
37971;SDS011;23794;48.234;8.344;2023-05-09T15:16:40;4.63;;;2.58;;
37971;SDS011;23794;48.234;8.344;2023-05-09T15:19:06;3.50;;;2.47;;
37971;SDS011;23794;48.234;8.344;2023-05-09T15:21:33;4.43;;;3.05;;
37971;SDS011;23794;48.234;8.344;2023-05-09T15:24:00;3.95;;;1.98;;
37971;SDS011;23794;48.234;8.344;2023-05-09T15:26:27;3.67;;;2.03;;
37971;SDS011;23794;48.234;8.344;2023-05-09T15:28:54;4.05;;;2.22;;
37971;SDS011;23794;48.234;8.344;2023-05-09T15:31:21;4.22;;;2.22;;